This is the latest recevied weather packets stored in our database for station/object K8JCL-13. If no packets are shown the sender has not sent any weather packets the latest 10 day(s).
| Time | Temp. | Humidity | Pressure | Rain* | Wind** | Luminosity | Snow |
|---|---|---|---|---|---|---|---|
| 1777670623 | 10.56° C | 69% | 1015.7 hPa | 0 mm | - | 100 W/m² | - |
| 1777670320 | 10.56° C | 68% | 1015.5 hPa | 0 mm | - | 115 W/m² | - |
| 1777670018 | 10.56° C | 67% | 1015.4 hPa | 0 mm | - | 152 W/m² | - |
| 1777669715 | 10° C | 69% | 1015.6 hPa | 0 mm | - | 142 W/m² | - |
| 1777669412 | 10° C | 69% | 1015.6 hPa | 0 mm | - | 128 W/m² | - |
| 1777669108 | 10° C | 70% | 1015.3 hPa | 0 mm | - | 153 W/m² | - |
| 1777668805 | 10° C | 72% | 1015.8 hPa | 0 mm | - | 163 W/m² | - |
| 1777668496 | 10° C | 70% | 1015.6 hPa | 0 mm | - | 131 W/m² | - |
| 1777668193 | 10° C | 69% | 1015.6 hPa | 0 mm | - | 105 W/m² | - |
| 1777667889 | 10.56° C | 67% | 1015.4 hPa | 0 mm | - | 156 W/m² | - |
| 1777667587 | 10° C | 70% | 1015.5 hPa | 0 mm | - | 150 W/m² | - |
| 1777667284 | 9.44° C | 72% | 1015.5 hPa | 0 mm | - | 120 W/m² | - |
| 1777666980 | 9.44° C | 75% | 1015.7 hPa | 0 mm | - | 71 W/m² | - |
| 1777666677 | 9.44° C | 72% | 1015.5 hPa | 0 mm | - | 70 W/m² | - |
| 1777666374 | 9.44° C | 74% | 1015.7 hPa | 0 mm | - | 102 W/m² | - |
| 1777666070 | 9.44° C | 73% | 1015.6 hPa | 0 mm | - | 112 W/m² | - |
| 1777665768 | 10° C | 71% | 1015.5 hPa | 0 mm | - | 133 W/m² | - |
| 1777665465 | 10° C | 73% | 1015.8 hPa | 0 mm | - | 187 W/m² | - |
| 1777665161 | 9.44° C | 75% | 1015.5 hPa | 0 mm | - | 221 W/m² | - |
| 1777664857 | 9.44° C | 76% | 1015.5 hPa | 0 mm | - | 176 W/m² | - |
| 1777664553 | 9.44° C | 76% | 1015.6 hPa | 0 mm | - | 138 W/m² | - |
| 1777664250 | 9.44° C | 76% | 1015.6 hPa | 0 mm | - | 104 W/m² | - |
| 1777663949 | 9.44° C | 75% | 1015.5 hPa | 0 mm | - | 123 W/m² | - |
| 1777663645 | 9.44° C | 74% | 1015.5 hPa | 0 mm | - | 167 W/m² | - |
| 1777663342 | 10° C | 72% | 1015.5 hPa | 0 mm | - | 173 W/m² | - |
* Rain latest hour (hover to see other rain measurements)
** Current wind speed in m/s (hover to see current wind gust speed)